Time;durP1;ratioP1;P1;durP2;ratioP2;P2;SDS_P1;SDS_P2;PMS_P1;PMS_P2;Temp;Humidity;BMP_temperature;BMP_pressure;BME280_temperature;BME280_humidity;BME280_pressure;Samples;Min_cycle;Max_cycle;Signal;HPM_P1;HPM_P2
2022/04/18 00:00:21;;;;;;;;;0.67;0.00;;;;;23.74;51.94;101482.06;5073072;28;45339;-66
2022/04/18 00:02:46;;;;;;;;;1.00;1.00;;;;;23.72;51.91;101470.47;5068450;28;46459;-66
2022/04/18 00:05:12;;;;;;;;;0.67;0.67;;;;;23.74;52.29;101471.28;5070120;28;45542;-66
2022/04/18 00:07:37;;;;;;;;;1.00;1.00;;;;;23.73;51.51;101469.53;5065185;28;45295;-66
2022/04/18 00:10:03;;;;;;;;;1.00;1.00;;;;;23.72;51.87;101465.06;5068436;28;45602;-66
2022/04/18 00:12:29;;;;;;;;;0.00;0.00;;;;;23.72;52.41;101467.78;5076784;28;47409;-66
2022/04/18 00:14:55;;;;;;;;;1.00;1.00;;;;;23.72;52.02;101468.66;5068293;28;45342;-66
2022/04/18 00:17:20;;;;;;;;;0.67;0.67;;;;;23.72;51.97;101463.25;5071989;28;45501;-66
2022/04/18 00:19:46;;;;;;;;;0.33;0.33;;;;;23.72;51.72;101451.59;5073711;28;46206;-67
2022/04/18 00:22:11;;;;;;;;;0.33;0.00;;;;;23.70;51.61;101457.06;5067962;28;46527;-66
2022/04/18 00:24:37;;;;;;;;;1.00;1.00;;;;;23.71;51.85;101452.53;5071018;28;45303;-67
2022/04/18 00:27:02;;;;;;;;;1.00;1.00;;;;;23.71;51.67;101461.50;5050150;28;45406;-67
2022/04/18 00:29:28;;;;;;;;;1.00;1.00;;;;;23.71;52.13;101466.91;5054694;28;45362;-66
2022/04/18 00:31:53;;;;;;;;;1.00;1.00;;;;;23.71;51.78;101463.31;5045425;28;46581;-66
2022/04/18 00:34:19;;;;;;;;;1.00;0.00;;;;;23.70;51.89;101445.34;5075853;28;45405;-66
2022/04/18 00:36:45;;;;;;;;;1.00;1.00;;;;;23.71;51.78;101447.13;5076292;28;45700;-67
2022/04/18 00:39:11;;;;;;;;;1.00;1.00;;;;;23.70;51.83;101454.34;5075385;28;45334;-66
2022/04/18 00:41:37;;;;;;;;;1.00;1.00;;;;;23.70;51.85;101448.03;5076409;28;46660;-67
2022/04/18 00:44:02;;;;;;;;;1.00;1.00;;;;;23.71;52.07;101449.84;5069506;28;45352;-66
2022/04/18 00:46:28;;;;;;;;;1.00;1.00;;;;;23.70;51.82;101439.97;5073372;28;45321;-66
2022/04/18 00:48:54;;;;;;;;;1.00;1.00;;;;;23.70;51.80;101435.47;5056790;28;45680;-66
2022/04/18 00:51:21;;;;;;;;;1.00;1.00;;;;;23.70;51.80;101437.25;5063785;28;46493;-66
2022/04/18 00:53:48;;;;;;;;;1.00;1.00;;;;;23.69;51.89;101432.81;5063663;28;45264;-67
2022/04/18 00:56:16;;;;;;;;;1.33;1.00;;;;;23.69;51.87;101435.50;5064601;28;45536;-66
2022/04/18 00:58:42;;;;;;;;;1.00;1.00;;;;;23.68;51.49;101439.13;5070934;28;45270;-66
2022/04/18 01:01:08;;;;;;;;;1.67;0.67;;;;;23.68;51.74;101436.44;5054881;28;47571;-67
2022/04/18 01:03:33;;;;;;;;;0.67;0.67;;;;;23.67;51.78;101437.38;5064935;28;45479;-67
2022/04/18 01:06:03;;;;;;;;;0.00;0.00;;;;;23.68;51.97;101436.44;5076228;28;45311;-66
2022/04/18 01:08:31;;;;;;;;;1.00;1.00;;;;;23.67;51.75;101434.69;5067353;28;45518;-67
2022/04/18 01:10:56;;;;;;;;;0.67;0.67;;;;;23.66;51.98;101433.81;5066341;28;46677;-66
2022/04/18 01:13:22;;;;;;;;;1.00;1.00;;;;;23.64;51.96;101430.25;5070547;28;45353;-67
2022/04/18 01:15:52;;;;;;;;;1.00;1.00;;;;;23.65;51.97;101425.75;5057285;28;45400;-66
2022/04/18 01:18:18;;;;;;;;;0.00;0.00;;;;;23.64;51.85;101416.78;5074220;28;45492;-66
2022/04/18 01:20:43;;;;;;;;;1.00;1.00;;;;;23.64;51.92;101427.56;5067496;28;47556;-68
2022/04/18 01:23:09;;;;;;;;;1.00;1.00;;;;;23.64;52.04;101424.00;5052849;28;45271;-67
2022/04/18 01:31:03;;;;;;;;;1.00;1.00;;;;;23.62;52.23;101412.34;5069557;28;45814;-66
2022/04/18 01:33:29;;;;;;;;;1.00;0.00;;;;;23.62;51.89;101412.34;5071236;28;45541;-67
2022/04/18 01:35:55;;;;;;;;;0.00;0.00;;;;;23.61;51.83;101411.47;5046437;28;45507;-67
2022/04/18 01:38:20;;;;;;;;;1.00;1.00;;;;;23.62;51.78;101415.94;5074833;28;45558;-66
2022/04/18 01:40:45;;;;;;;;;0.00;0.00;;;;;23.61;51.75;101411.47;5075382;28;47366;-67
2022/04/18 01:43:11;;;;;;;;;1.00;1.00;;;;;23.61;51.71;101416.00;5050154;28;45384;-67
2022/04/18 01:45:36;;;;;;;;;1.00;1.00;;;;;23.60;51.88;101414.22;5062382;28;45242;-67
2022/04/18 01:48:02;;;;;;;;;1.00;1.00;;;;;23.59;52.11;101413.31;5071551;28;45485;-66
2022/04/18 01:50:27;;;;;;;;;0.00;0.00;;;;;23.60;51.90;101411.53;5071662;28;46280;-66
2022/04/18 01:52:52;;;;;;;;;1.00;1.00;;;;;23.60;51.73;101408.84;5047941;28;46828;-66
2022/04/18 01:55:18;;;;;;;;;2.33;1.00;;;;;23.59;52.03;101407.06;5066060;28;45285;-68
2022/04/18 01:57:43;;;;;;;;;1.00;1.00;;;;;23.59;51.86;101401.66;5067619;28;45487;-66
2022/04/18 02:00:10;;;;;;;;;0.00;0.00;;;;;23.58;51.89;101402.59;5063575;28;46443;-66
2022/04/18 02:02:35;;;;;;;;;1.33;1.00;;;;;23.58;51.79;101400.78;5063941;28;45794;-67
2022/04/18 02:05:01;;;;;;;;;1.00;0.00;;;;;23.57;52.12;101399.03;5075637;28;45848;-67
2022/04/18 02:07:28;;;;;;;;;2.00;0.33;;;;;23.57;51.96;101395.44;5067129;28;45425;-67
2022/04/18 02:09:54;;;;;;;;;1.00;1.00;;;;;23.58;51.94;101397.22;5065951;28;46523;-66
2022/04/18 02:12:19;;;;;;;;;1.00;1.00;;;;;23.57;51.91;101393.63;5074006;28;45321;-66
2022/04/18 02:14:45;;;;;;;;;0.00;0.00;;;;;23.57;52.05;101390.06;5075152;28;45366;-66
2022/04/18 02:17:10;;;;;;;;;2.33;0.00;;;;;23.56;51.94;101386.50;5067142;28;45722;-66
2022/04/18 02:19:35;;;;;;;;;0.67;0.67;;;;;23.56;51.91;101391.00;5077491;28;51009;-66
2022/04/18 02:22:01;;;;;;;;;1.00;1.00;;;;;23.56;52.16;101382.91;5068006;28;45316;-67
2022/04/18 02:24:26;;;;;;;;;0.33;0.33;;;;;23.55;52.03;101386.56;5061663;28;45317;-67
2022/04/18 02:26:52;;;;;;;;;1.00;1.00;;;;;23.53;51.76;101387.44;5075470;28;45513;-66
2022/04/18 02:29:18;;;;;;;;;1.00;1.00;;;;;23.55;52.04;101383.84;5078412;28;46287;-67
2022/04/18 02:34:27;;;;;;;;;2.00;0.00;;;;;23.53;52.03;101381.19;5065609;28;45411;-66
2022/04/18 02:36:53;;;;;;;;;1.00;1.00;;;;;23.55;52.21;101381.16;5078855;28;45216;-66
2022/04/18 02:39:18;;;;;;;;;1.33;0.00;;;;;23.52;52.17;101377.63;5052945;28;46392;-66
2022/04/18 02:41:43;;;;;;;;;0.00;0.00;;;;;23.53;52.00;101381.19;5051943;28;45434;-67
2022/04/18 02:44:09;;;;;;;;;2.00;1.00;;;;;23.53;52.17;101379.38;5070578;28;49131;-66
2022/04/18 02:46:34;;;;;;;;;3.00;1.00;;;;;23.55;52.17;101378.47;5076550;28;45604;-67
2022/04/18 02:48:59;;;;;;;;;1.00;1.00;;;;;23.55;52.26;101379.34;5048311;28;60855;-67
2022/04/18 02:51:27;;;;;;;;;1.00;1.00;;;;;23.55;52.40;101379.34;5070021;28;45426;-66
2022/04/18 02:53:53;;;;;;;;;2.00;1.00;;;;;23.55;52.11;101381.16;5070382;28;45549;-66
2022/04/18 02:56:19;;;;;;;;;2.00;2.00;;;;;23.56;52.19;101382.91;5074468;28;45485;-66
2022/04/18 02:58:44;;;;;;;;;1.00;1.00;;;;;23.57;52.19;101377.47;5073167;28;45639;-66
2022/04/18 03:01:10;;;;;;;;;1.33;1.00;;;;;23.58;52.10;101379.22;5071018;28;52406;-67
2022/04/18 03:03:35;;;;;;;;;1.00;1.00;;;;;23.60;52.23;101376.50;5074971;28;45445;-66
2022/04/18 03:06:00;;;;;;;;;1.00;1.00;;;;;23.60;52.38;101380.06;5071023;28;45498;-67
2022/04/18 03:08:26;;;;;;;;;2.00;0.33;;;;;23.64;51.92;101380.84;5072456;28;47263;-66
2022/04/18 03:11:03;;;;;;;;;2.00;1.00;;;;;23.63;52.17;101377.28;5072719;28;45446;-67
2022/04/18 03:13:29;;;;;;;;;1.00;1.00;;;;;23.65;52.30;101371.81;5059478;28;45344;-67
2022/04/18 03:15:55;;;;;;;;;1.00;1.00;;;;;23.66;52.25;101374.50;5076679;28;45363;-66
2022/04/18 03:18:21;;;;;;;;;0.67;0.67;;;;;23.67;52.21;101369.97;5048536;28;47341;-67
2022/04/18 03:20:46;;;;;;;;;1.33;1.33;;;;;23.68;52.21;101366.34;5071072;28;45323;-67
2022/04/18 03:23:12;;;;;;;;;1.00;1.00;;;;;23.68;52.24;101366.34;5062656;28;46047;-67
2022/04/18 03:25:37;;;;;;;;;1.00;1.00;;;;;23.67;52.29;101368.16;5066644;28;45392;-67
2022/04/18 03:28:03;;;;;;;;;1.67;1.67;;;;;23.67;52.17;101361.88;5077358;28;46766;-66
2022/04/18 03:30:28;;;;;;;;;1.00;1.00;;;;;23.68;52.22;101371.72;5041169;28;45610;-67
2022/04/18 03:32:54;;;;;;;;;1.00;1.00;;;;;23.68;52.14;101369.91;5070527;28;45312;-66
2022/04/18 03:35:19;;;;;;;;;1.00;1.00;;;;;23.68;52.33;101369.91;5069615;28;45557;-66
2022/04/18 03:40:28;;;;;;;;;2.00;2.00;;;;;23.67;52.26;101362.75;5068753;28;45324;-67
2022/04/18 03:42:54;;;;;;;;;2.00;2.00;;;;;23.68;52.24;101360.94;5060630;28;45573;-67
2022/04/18 03:45:19;;;;;;;;;2.00;2.00;;;;;23.68;52.25;101358.25;5072076;28;45565;-66
2022/04/18 03:47:44;;;;;;;;;1.00;1.00;;;;;23.67;52.47;101362.75;5066574;28;47050;-66
2022/04/18 03:50:10;;;;;;;;;1.67;1.67;;;;;23.67;52.15;101359.19;5076985;28;51239;-66
2022/04/18 03:52:35;;;;;;;;;1.67;1.67;;;;;23.66;52.18;101361.00;5073777;28;45645;-68
2022/04/18 03:55:01;;;;;;;;;3.00;3.00;;;;;23.66;52.18;101357.44;5069788;28;45220;-67
2022/04/18 03:57:26;;;;;;;;;2.00;2.00;;;;;23.64;52.25;101356.59;5074977;28;46477;-67
2022/04/18 03:59:51;;;;;;;;;3.33;2.00;;;;;23.65;52.20;101358.34;5075130;28;45374;-66
2022/04/18 04:02:17;;;;;;;;;1.00;1.00;;;;;23.63;51.70;101353.00;5069332;28;45403;-67
2022/04/18 04:04:43;;;;;;;;;1.00;1.00;;;;;23.63;52.29;101353.00;5051382;28;45583;-67
2022/04/18 04:07:09;;;;;;;;;2.00;2.00;;;;;23.64;52.19;101356.59;5070970;28;46639;-67
2022/04/18 04:09:34;;;;;;;;;1.67;1.67;;;;;23.62;52.26;101358.44;5061403;28;45258;-66
2022/04/18 04:12:00;;;;;;;;;2.67;2.67;;;;;23.63;52.10;101357.53;5076604;28;45403;-67
2022/04/18 04:14:26;;;;;;;;;2.00;2.00;;;;;23.61;51.88;101351.28;5065707;28;45416;-66
2022/04/18 04:16:51;;;;;;;;;3.00;2.00;;;;;23.61;52.08;101353.97;5063996;28;45590;-67
2022/04/18 04:19:17;;;;;;;;;1.67;1.67;;;;;23.60;52.27;101352.22;5076319;28;45288;-66
2022/04/18 04:21:42;;;;;;;;;1.00;1.00;;;;;23.60;52.25;101357.63;5076725;28;45350;-66
2022/04/18 04:24:08;;;;;;;;;2.00;2.00;;;;;23.58;52.09;101349.56;5057034;28;45551;-66
2022/04/18 04:26:33;;;;;;;;;2.00;2.00;;;;;23.58;52.29;101349.56;5066705;28;46567;-67
2022/04/18 04:28:59;;;;;;;;;2.00;2.00;;;;;23.58;52.44;101351.38;5076307;28;50145;-66
2022/04/18 04:31:24;;;;;;;;;0.00;0.00;;;;;23.57;52.11;101355.00;5068041;28;45722;-66
2022/04/18 04:33:50;;;;;;;;;3.00;2.00;;;;;23.57;52.27;101355.00;5054005;28;45392;-67
2022/04/18 04:36:18;;;;;;;;;2.00;2.00;;;;;23.55;52.40;101355.06;5064926;28;47436;-66
2022/04/18 04:38:43;;;;;;;;;3.00;1.33;;;;;23.56;52.24;101355.97;5060455;28;45405;-67
2022/04/18 04:41:09;;;;;;;;;2.00;2.00;;;;;23.55;52.39;101357.78;5058136;28;45383;-66
2022/04/18 04:43:34;;;;;;;;;1.00;1.00;;;;;23.55;52.26;101363.16;5064918;28;45470;-67
2022/04/18 04:46:02;;;;;;;;;1.00;1.00;;;;;23.53;52.58;101355.09;5074987;28;47245;-66
2022/04/18 04:48:28;;;;;;;;;2.00;2.00;;;;;23.54;52.63;101361.38;5058389;28;45410;-66
2022/04/18 04:50:54;;;;;;;;;3.00;3.00;;;;;23.52;52.45;101356.06;5067775;28;45338;-66
2022/04/18 04:53:19;;;;;;;;;2.00;2.00;;;;;23.52;52.64;101360.56;5065620;28;45281;-66
2022/04/18 04:55:45;;;;;;;;;1.00;1.00;;;;;23.52;52.27;101356.06;5071168;28;46658;-67
2022/04/18 04:58:11;;;;;;;;;1.67;1.67;;;;;23.51;52.43;101362.38;5071899;28;45394;-67
2022/04/18 05:00:37;;;;;;;;;1.67;1.67;;;;;23.50;52.43;101360.63;5063750;28;47083;-66
2022/04/18 05:03:03;;;;;;;;;1.00;1.00;;;;;23.50;52.64;101359.75;5146556;22;47080;-67
2022/04/18 05:05:29;;;;;;;;;2.00;2.00;;;;;23.50;52.48;101359.75;5045264;28;45920;-66
2022/04/18 05:07:55;;;;;;;;;2.00;2.00;;;;;23.50;52.55;101362.44;5039728;28;45429;-66
2022/04/18 05:10:21;;;;;;;;;1.00;1.00;;;;;23.50;52.49;101359.75;5044679;28;45459;-67
2022/04/18 05:12:46;;;;;;;;;3.00;3.00;;;;;23.48;52.65;101361.59;5046767;28;45483;-67
2022/04/18 05:15:12;;;;;;;;;2.00;2.00;;;;;23.47;52.65;101363.41;5056239;28;47495;-67
2022/04/18 05:17:37;;;;;;;;;2.00;2.00;;;;;23.47;52.57;101366.09;5048990;28;45545;-66
2022/04/18 05:20:04;;;;;;;;;2.00;2.00;;;;;23.47;52.58;101363.41;5045097;28;45984;-66
2022/04/18 05:22:30;;;;;;;;;3.67;2.00;;;;;23.47;52.60;101371.50;5053184;28;45479;-66
2022/04/18 05:24:56;;;;;;;;;2.00;2.00;;;;;23.46;52.75;101363.47;5055291;28;46425;-66
2022/04/18 05:27:22;;;;;;;;;3.00;3.00;;;;;23.46;52.57;101367.03;5029098;28;46195;-66
2022/04/18 05:29:47;;;;;;;;;3.00;3.00;;;;;23.46;52.47;101374.25;5043796;28;45507;-66
2022/04/18 05:32:12;;;;;;;;;3.00;3.00;;;;;23.46;52.78;101371.56;5051996;28;45553;-66
2022/04/18 05:34:38;;;;;;;;;3.00;3.00;;;;;23.46;52.73;101382.34;5047647;28;46689;-66
2022/04/18 05:37:04;;;;;;;;;2.00;2.00;;;;;23.45;52.82;101384.16;5029682;28;45345;-66
2022/04/18 05:39:30;;;;;;;;;2.00;2.00;;;;;23.44;53.08;101382.41;5046645;28;45313;-66
2022/04/18 05:41:56;;;;;;;;;2.33;2.33;;;;;23.43;52.83;101383.31;5037175;28;45653;-66
2022/04/18 05:44:22;;;;;;;;;2.00;2.00;;;;;23.43;52.82;101394.09;5054201;28;46720;-66
2022/04/18 05:46:48;;;;;;;;;1.33;1.33;;;;;23.43;52.84;101395.91;5034300;28;45308;-66
2022/04/18 05:49:13;;;;;;;;;2.00;2.00;;;;;23.43;53.16;101402.19;5048921;28;45447;-66
2022/04/18 05:51:39;;;;;;;;;4.00;2.67;;;;;23.42;53.04;101408.50;5050328;28;45602;-67
2022/04/18 05:54:04;;;;;;;;;2.67;2.00;;;;;23.43;52.96;101401.28;5046380;28;46449;-66
2022/04/18 05:56:32;;;;;;;;;2.00;2.00;;;;;23.42;52.90;101397.72;5050683;28;45419;-66
2022/04/18 05:58:58;;;;;;;;;2.00;2.00;;;;;23.42;53.09;101400.41;5024993;28;45569;-66
2022/04/18 06:01:24;;;;;;;;;3.00;2.00;;;;;23.44;53.19;101403.09;5031223;28;45576;-66
2022/04/18 06:03:49;;;;;;;;;2.00;2.00;;;;;23.43;53.03;101402.19;5047763;28;47268;-66
2022/04/18 06:06:15;;;;;;;;;2.00;2.00;;;;;23.43;53.37;101406.69;5049800;28;45558;-66
2022/04/18 06:08:40;;;;;;;;;2.33;2.33;;;;;23.44;53.02;101413.88;5051306;28;45420;-67
2022/04/18 06:11:06;;;;;;;;;2.33;2.00;;;;;23.44;53.19;101413.88;5055590;28;45590;-66
2022/04/18 06:13:32;;;;;;;;;2.33;2.33;;;;;23.43;53.19;101407.56;5052360;28;47596;-67
2022/04/18 06:15:57;;;;;;;;;3.00;2.00;;;;;23.44;53.22;101416.56;5057719;28;45382;-66
2022/04/18 06:18:23;;;;;;;;;3.00;3.00;;;;;23.44;53.33;101417.44;5058471;28;45665;-67
2022/04/18 06:20:48;;;;;;;;;4.00;4.00;;;;;23.44;53.22;101414.75;5050460;28;45326;-67
2022/04/18 06:23:17;;;;;;;;;2.00;2.00;;;;;23.44;52.82;101417.44;5047850;28;50025;-66
2022/04/18 06:25:43;;;;;;;;;2.67;2.67;;;;;23.44;53.18;101416.56;5030360;28;45475;-66
2022/04/18 06:28:08;;;;;;;;;3.00;3.00;;;;;23.44;53.15;101421.94;5040174;28;45452;-66
2022/04/18 06:30:34;;;;;;;;;3.00;2.00;;;;;23.46;53.30;101412.00;5042676;28;45254;-66
2022/04/18 06:32:59;;;;;;;;;2.00;2.00;;;;;23.45;53.32;101412.94;5050156;28;51447;-66
2022/04/18 06:35:24;;;;;;;;;1.67;1.67;;;;;23.44;53.23;101412.06;5028763;28;45507;-67
2022/04/18 06:37:50;;;;;;;;;2.00;2.00;;;;;23.45;53.27;101404.84;5047132;28;45841;-67
2022/04/18 06:40:15;;;;;;;;;4.00;2.00;;;;;23.44;53.39;101412.06;5054826;28;45556;-68
2022/04/18 06:42:41;;;;;;;;;4.33;1.00;;;;;23.44;53.29;101401.25;5048874;28;58120;-66
2022/04/18 06:45:06;;;;;;;;;1.33;1.33;;;;;23.45;53.09;101402.16;5048454;28;45237;-67
2022/04/18 06:47:32;;;;;;;;;5.00;4.00;;;;;23.45;53.32;101399.44;5036386;28;45515;-66
2022/04/18 06:49:57;;;;;;;;;2.00;2.00;;;;;23.46;53.14;101403.91;5043159;28;45679;-67
2022/04/18 06:52:22;;;;;;;;;2.00;2.00;;;;;23.44;53.31;101406.66;5041626;28;64263;-67
2022/04/18 06:54:48;;;;;;;;;2.00;2.00;;;;;23.46;53.10;101406.59;5051378;28;54305;-66
2022/04/18 06:57:14;;;;;;;;;3.33;2.00;;;;;23.44;53.21;101398.56;5027768;28;45836;-67
2022/04/18 06:59:40;;;;;;;;;2.00;2.00;;;;;23.45;53.49;101405.72;5048090;28;45327;-67
2022/04/18 07:02:05;;;;;;;;;2.00;2.00;;;;;23.45;53.35;101400.31;5043510;28;52195;-67
2022/04/18 07:04:30;;;;;;;;;3.00;1.67;;;;;23.45;53.30;101403.03;5056869;28;45241;-66
2022/04/18 07:06:56;;;;;;;;;2.33;2.00;;;;;23.45;53.36;101400.31;5056019;28;54105;-66
2022/04/18 07:09:21;;;;;;;;;3.00;2.00;;;;;23.47;53.05;101413.75;5048960;28;45761;-67
2022/04/18 07:11:47;;;;;;;;;2.00;2.00;;;;;23.47;53.30;101397.56;5046493;28;47445;-67
2022/04/18 07:14:13;;;;;;;;;1.33;1.33;;;;;23.48;53.35;101402.91;5047511;28;45987;-66
2022/04/18 07:16:39;;;;;;;;;5.00;3.67;;;;;23.48;53.18;101405.59;5031846;28;45327;-65
2022/04/18 07:19:04;;;;;;;;;1.33;1.33;;;;;23.48;53.38;101399.31;5047151;28;45317;-67
2022/04/18 07:21:30;;;;;;;;;3.00;1.67;;;;;23.47;53.16;101401.16;5057365;28;47155;-66
2022/04/18 07:23:56;;;;;;;;;2.00;2.00;;;;;23.48;53.23;101400.22;5042820;28;45472;-65
2022/04/18 07:26:22;;;;;;;;;3.00;3.00;;;;;23.48;53.20;101399.31;5043890;28;45450;-65
2022/04/18 07:28:47;;;;;;;;;2.00;2.00;;;;;23.47;53.29;101400.25;5053848;28;45640;-65
2022/04/18 07:31:13;;;;;;;;;4.67;2.00;;;;;23.48;53.09;101410.13;5042780;28;46572;-64
2022/04/18 07:33:39;;;;;;;;;3.67;2.00;;;;;23.49;53.11;101403.81;5045437;28;45352;-66
2022/04/18 07:36:05;;;;;;;;;4.33;2.00;;;;;23.49;53.25;101402.00;5036213;28;45746;-65
2022/04/18 07:38:49;;;;;;;;;7.33;5.33;;;;;23.45;51.09;101416.50;5049960;28;45460;-66
2022/04/18 07:41:18;;;;;;;;;5.00;5.00;;;;;23.26;47.64;101413.50;5049068;28;47586;-66
2022/04/18 07:43:44;;;;;;;;;5.67;4.33;;;;;23.04;45.27;101411.56;5039319;28;45446;-67
2022/04/18 07:46:10;;;;;;;;;6.67;5.67;;;;;22.79;44.31;101414.97;5044472;28;45525;-66
2022/04/18 07:48:35;;;;;;;;;7.00;4.67;;;;;22.51;43.19;101412.22;5045817;28;47712;-65
2022/04/18 07:53:45;;;;;;;;;9.00;7.33;;;;;21.95;41.94;101415.56;5034145;28;45443;-65
2022/04/18 07:56:10;;;;;;;;;7.00;5.00;;;;;21.73;41.89;101419.72;5037235;28;46707;-64
2022/04/18 07:58:36;;;;;;;;;6.00;4.67;;;;;21.52;41.48;101414.88;5037193;28;45141;-62
2022/04/18 08:01:01;;;;;;;;;5.67;5.00;;;;;21.33;41.95;101426.09;5037023;28;45750;-64
2022/04/18 08:03:27;;;;;;;;;7.67;6.00;;;;;21.16;41.56;101426.47;5036594;28;50346;-64
2022/04/18 08:05:58;;;;;;;;;7.00;6.00;;;;;21.01;41.36;101428.63;5019857;28;45240;-66
2022/04/18 08:08:24;;;;;;;;;9.33;6.33;;;;;20.86;41.44;101424.47;5037179;28;45284;-64
2022/04/18 08:10:49;;;;;;;;;7.67;5.67;;;;;20.74;41.89;101419.38;5039125;28;47380;-66
2022/04/18 08:13:15;;;;;;;;;9.00;6.33;;;;;20.61;41.61;101418.72;5044668;28;50266;-65
2022/04/18 08:15:40;;;;;;;;;5.00;5.00;;;;;20.51;41.15;101425.25;5042526;28;45348;-65
2022/04/18 08:18:06;;;;;;;;;6.00;6.00;;;;;20.38;41.43;101422.75;5035454;28;45450;-67
2022/04/18 08:20:31;;;;;;;;;6.33;4.67;;;;;20.28;41.51;101421.16;5037145;28;46331;-67
2022/04/18 08:22:56;;;;;;;;;7.00;5.67;;;;;20.20;41.47;101409.72;5033656;28;50760;-69
2022/04/18 08:25:22;;;;;;;;;6.67;5.67;;;;;20.14;41.41;101425.94;5023842;28;45622;-67
2022/04/18 08:27:47;;;;;;;;;5.67;5.67;;;;;20.05;40.89;101418.06;5048816;28;45400;-67
2022/04/18 08:30:13;;;;;;;;;6.00;6.00;;;;;19.99;40.78;101420.84;5043336;28;51914;-66
2022/04/18 08:32:39;;;;;;;;;7.00;7.00;;;;;19.91;40.96;101412.94;5052621;28;46724;-66
2022/04/18 08:35:05;;;;;;;;;7.00;6.00;;;;;19.83;40.52;101415.75;5044674;28;47066;-65
2022/04/18 08:37:31;;;;;;;;;10.00;8.00;;;;;19.79;40.96;101413.16;5037260;28;45491;-65
2022/04/18 08:39:56;;;;;;;;;7.00;4.00;;;;;19.73;41.46;101414.16;5049460;28;46443;-62
2022/04/18 08:42:23;;;;;;;;;4.33;4.33;;;;;19.78;42.71;101414.97;5050958;28;45427;-63
2022/04/18 08:44:53;;;;;;;;;4.00;4.00;;;;;19.91;43.64;101420.09;5042016;28;45344;-63
2022/04/18 08:52:50;;;;;;;;;4.67;4.00;;;;;20.47;45.29;101410.13;5046109;28;45412;-63
2022/04/18 08:55:16;;;;;;;;;3.00;3.00;;;;;20.60;45.90;101406.25;5029653;28;45561;-63
2022/04/18 08:57:42;;;;;;;;;3.00;3.00;;;;;20.76;46.23;101407.66;5025387;28;45325;-63
2022/04/18 09:00:09;;;;;;;;;6.00;4.33;;;;;20.90;46.61;101404.69;5047830;28;47215;-63
2022/04/18 09:02:35;;;;;;;;;4.00;3.00;;;;;21.03;47.39;101405.28;5042503;28;45614;-62
2022/04/18 09:05:00;;;;;;;;;3.00;3.00;;;;;21.16;47.47;101409.47;5049164;28;45590;-62
2022/04/18 09:07:26;;;;;;;;;2.00;2.00;;;;;21.29;47.75;101415.41;5045996;28;45504;-63
2022/04/18 09:09:58;;;;;;;;;2.67;2.67;;;;;21.40;48.60;101416.06;5027249;28;46750;-63
2022/04/18 09:12:27;;;;;;;;;2.33;2.00;;;;;21.51;48.69;101410.44;5045641;28;45500;-62
2022/04/18 09:14:52;;;;;;;;;4.00;3.00;;;;;21.61;49.56;101404.78;5044536;28;45440;-63
2022/04/18 09:17:32;;;;;;;;;7.67;6.00;;;;;21.70;47.96;101415.31;5039563;28;45329;-65
2022/04/18 09:20:09;;;;;;;;;11.00;8.33;;;;;21.68;44.77;101408.22;5032233;28;46470;-65
2022/04/18 09:22:44;;;;;;;;;9.00;7.67;;;;;21.54;43.86;101410.38;5044598;28;45474;-64
2022/04/18 09:25:16;;;;;;;;;11.67;9.00;;;;;21.35;43.79;101405.44;5035856;28;45486;-65
2022/04/18 09:27:56;;;;;;;;;8.67;7.00;;;;;21.23;43.33;101397.66;5050392;28;45417;-65
2022/04/18 09:30:23;;;;;;;;;7.00;7.00;;;;;21.12;42.49;101399.72;5055223;28;46566;-65
2022/04/18 09:32:55;;;;;;;;;9.67;8.00;;;;;21.03;43.04;101398.09;5046842;28;45627;-64
2022/04/18 09:35:24;;;;;;;;;8.67;7.67;;;;;20.98;42.18;101393.78;5058712;28;45659;-65
2022/04/18 09:37:51;;;;;;;;;7.00;6.00;;;;;20.88;41.69;101394.00;5058009;28;45489;-64
2022/04/18 09:40:22;;;;;;;;;6.33;6.33;;;;;20.79;41.89;101388.84;5043251;28;47213;-65
2022/04/18 09:42:51;;;;;;;;;6.67;6.00;;;;;20.74;40.92;101398.78;5052710;28;45512;-64
2022/04/18 09:45:17;;;;;;;;;10.00;7.00;;;;;20.62;40.32;101388.31;5044563;28;45556;-65
2022/04/18 09:47:43;;;;;;;;;9.00;8.33;;;;;20.58;41.32;101394.66;5029926;28;45337;-65
2022/04/18 09:50:59;;;;;;;;;8.00;6.67;;;;;20.55;41.81;101397.41;5039616;28;45553;-65
2022/04/18 09:53:05;;;;;;;;;6.33;6.33;;;;;20.55;40.99;101394.72;5050486;28;45485;-65
2022/04/18 09:55:30;;;;;;;;;6.00;6.00;;;;;20.52;40.65;101389.44;5055800;28;45307;-65
2022/04/18 09:58:03;;;;;;;;;8.00;6.00;;;;;20.49;40.78;101382.31;5048958;28;45275;-65
2022/04/18 10:00:28;;;;;;;;;7.00;7.00;;;;;20.46;41.26;101395.81;5047667;28;45721;-64
2022/04/18 10:02:54;;;;;;;;;7.00;7.00;;;;;20.46;40.77;101386.84;5051267;28;47162;-65
2022/04/18 10:05:20;;;;;;;;;8.33;6.00;;;;;20.47;42.03;101386.84;5047377;28;45431;-65
2022/04/18 10:07:47;;;;;;;;;6.00;6.00;;;;;20.47;42.12;101380.59;5039113;28;45333;-64
2022/04/18 10:10:13;;;;;;;;;11.67;7.00;;;;;20.48;42.29;101383.25;5037189;28;46318;-64
2022/04/18 10:12:38;;;;;;;;;8.00;8.00;;;;;20.50;41.88;101385.88;5058524;28;45277;-65
2022/04/18 10:15:04;;;;;;;;;6.00;6.00;;;;;20.51;41.66;101376.94;5055882;28;45593;-65
2022/04/18 10:17:30;;;;;;;;;7.33;7.00;;;;;20.54;42.03;101383.09;5050116;28;45694;-64
2022/04/18 10:20:14;;;;;;;;;9.00;9.00;;;;;20.54;42.05;101374.19;5048211;28;47571;-65
2022/04/18 10:22:54;;;;;;;;;8.67;8.67;;;;;20.57;41.94;101376.81;5049237;28;45475;-65
2022/04/18 10:25:41;;;;;;;;;9.33;8.00;;;;;20.61;41.79;101375.81;5040248;28;45349;-64
2022/04/18 10:28:16;;;;;;;;;10.33;10.33;;;;;20.62;41.74;101380.28;5057253;28;45229;-65
2022/04/18 10:30:56;;;;;;;;;7.67;7.67;;;;;20.63;41.77;101366.81;5038555;28;47593;-64
2022/04/18 10:33:23;;;;;;;;;9.67;8.00;;;;;20.67;42.71;101373.91;5045888;28;45463;-65
2022/04/18 10:36:01;;;;;;;;;9.67;7.00;;;;;20.75;42.17;101370.16;5035884;28;45495;-65
2022/04/18 10:38:27;;;;;;;;;8.00;8.00;;;;;20.79;42.39;101370.03;5055221;28;45337;-65
2022/04/18 10:41:14;;;;;;;;;8.00;7.00;;;;;20.81;41.31;101367.31;5052075;28;47405;-65
2022/04/18 10:44:02;;;;;;;;;10.33;9.00;;;;;20.80;42.18;101361.06;5058019;28;45304;-65
2022/04/18 10:46:28;;;;;;;;;8.00;8.00;;;;;20.80;42.23;101357.50;5050689;28;45572;-65
2022/04/18 10:48:55;;;;;;;;;11.67;8.67;;;;;20.83;41.86;101354.75;5034497;28;45415;-65
2022/04/18 10:51:37;;;;;;;;;10.33;10.33;;;;;20.85;41.67;101356.47;5031522;28;48905;-65
2022/04/18 10:54:20;;;;;;;;;8.00;8.00;;;;;20.89;42.25;101347.44;5052536;28;45482;-65
2022/04/18 10:57:01;;;;;;;;;8.00;8.00;;;;;20.93;42.45;101348.22;5036649;28;45358;-64
2022/04/18 10:59:33;;;;;;;;;9.00;7.67;;;;;20.98;42.23;101345.44;5053046;28;45564;-65
2022/04/18 11:02:01;;;;;;;;;12.67;8.33;;;;;21.02;41.42;101345.34;5048208;28;46645;-64
2022/04/18 11:04:48;;;;;;;;;7.00;6.00;;;;;21.06;42.29;101348.84;5044382;28;45515;-65
2022/04/18 11:07:14;;;;;;;;;6.67;6.67;;;;;21.10;41.71;101342.47;5047986;28;45580;-64
2022/04/18 11:09:42;;;;;;;;;8.33;8.00;;;;;21.12;41.14;101341.50;5049580;28;45486;-65
2022/04/18 11:12:13;;;;;;;;;5.67;5.67;;;;;21.12;42.07;101338.81;5049705;28;47551;-65
2022/04/18 11:14:52;;;;;;;;;7.00;7.00;;;;;21.19;41.51;101343.13;5022178;28;45337;-65
2022/04/18 11:17:29;;;;;;;;;4.00;4.00;;;;;21.24;42.16;101343.00;5048343;28;45510;-65
2022/04/18 11:19:54;;;;;;;;;4.33;4.00;;;;;21.28;42.08;101335.75;5048236;28;45484;-65
2022/04/18 11:22:22;;;;;;;;;5.00;4.67;;;;;21.33;41.25;101333.88;5057489;28;47463;-65
2022/04/18 11:24:51;;;;;;;;;5.33;5.33;;;;;21.36;41.25;101329.31;5049394;28;45361;-64
2022/04/18 11:27:20;;;;;;;;;6.33;5.33;;;;;21.42;41.54;101339.03;5053817;28;45425;-65
2022/04/18 11:29:54;;;;;;;;;5.33;5.33;;;;;21.48;42.21;101332.59;5046321;28;45618;-64
2022/04/18 11:32:22;;;;;;;;;6.00;6.00;;;;;21.52;41.79;101328.88;5041480;28;46454;-64
2022/04/18 11:34:50;;;;;;;;;6.00;6.00;;;;;21.55;39.88;101320.75;5038132;28;45808;-64
2022/04/18 11:37:21;;;;;;;;;6.00;6.00;;;;;21.58;41.18;101323.38;5049184;28;45493;-64
2022/04/18 11:39:49;;;;;;;;;5.00;5.00;;;;;21.62;40.93;101322.34;5057561;28;45212;-63
2022/04/18 11:42:26;;;;;;;;;6.00;5.67;;;;;21.65;41.11;101309.72;5039013;28;47585;-64